sensor_id;sensor_type;location;lat;lon;timestamp;P1;durP1;ratioP1;P2;durP2;ratioP2
20334;SDS011;10325;51.468;5.804;2023-03-19T00:00:35;1.97;;;1.10;;
20334;SDS011;10325;51.468;5.804;2023-03-19T00:03:05;1.57;;;1.00;;
20334;SDS011;10325;51.468;5.804;2023-03-19T00:05:37;1.37;;;0.77;;
20334;SDS011;10325;51.468;5.804;2023-03-19T00:08:05;0.93;;;0.80;;
20334;SDS011;10325;51.468;5.804;2023-03-19T00:10:37;1.30;;;0.80;;
20334;SDS011;10325;51.468;5.804;2023-03-19T00:13:09;1.27;;;0.90;;
20334;SDS011;10325;51.468;5.804;2023-03-19T00:15:41;1.33;;;0.90;;
20334;SDS011;10325;51.468;5.804;2023-03-19T00:18:10;2.17;;;0.83;;
20334;SDS011;10325;51.468;5.804;2023-03-19T00:20:41;2.30;;;0.97;;
20334;SDS011;10325;51.468;5.804;2023-03-19T00:23:10;1.00;;;0.80;;
20334;SDS011;10325;51.468;5.804;2023-03-19T00:25:40;1.67;;;1.10;;
20334;SDS011;10325;51.468;5.804;2023-03-19T00:28:09;1.53;;;0.80;;
20334;SDS011;10325;51.468;5.804;2023-03-19T00:30:40;1.20;;;1.00;;
20334;SDS011;10325;51.468;5.804;2023-03-19T00:33:14;1.33;;;0.90;;
20334;SDS011;10325;51.468;5.804;2023-03-19T00:35:44;2.40;;;0.90;;
20334;SDS011;10325;51.468;5.804;2023-03-19T00:38:16;2.70;;;0.90;;
20334;SDS011;10325;51.468;5.804;2023-03-19T00:40:47;0.97;;;0.80;;
20334;SDS011;10325;51.468;5.804;2023-03-19T00:43:17;1.50;;;1.10;;
20334;SDS011;10325;51.468;5.804;2023-03-19T00:45:49;1.33;;;0.83;;
20334;SDS011;10325;51.468;5.804;2023-03-19T00:48:20;2.40;;;0.70;;
20334;SDS011;10325;51.468;5.804;2023-03-19T00:50:51;1.00;;;0.90;;
20334;SDS011;10325;51.468;5.804;2023-03-19T00:53:19;1.53;;;1.07;;
20334;SDS011;10325;51.468;5.804;2023-03-19T00:55:50;1.30;;;1.10;;
20334;SDS011;10325;51.468;5.804;2023-03-19T00:58:22;2.83;;;0.97;;
20334;SDS011;10325;51.468;5.804;2023-03-19T01:00:54;2.23;;;1.13;;
20334;SDS011;10325;51.468;5.804;2023-03-19T01:03:32;1.57;;;1.03;;
20334;SDS011;10325;51.468;5.804;2023-03-19T01:06:08;0.77;;;0.70;;
20334;SDS011;10325;51.468;5.804;2023-03-19T01:08:38;0.80;;;0.80;;
20334;SDS011;10325;51.468;5.804;2023-03-19T01:11:12;0.87;;;0.87;;
20334;SDS011;10325;51.468;5.804;2023-03-19T01:13:57;1.27;;;1.17;;
20334;SDS011;10325;51.468;5.804;2023-03-19T01:16:29;1.33;;;1.00;;
20334;SDS011;10325;51.468;5.804;2023-03-19T01:19:00;1.20;;;1.10;;
20334;SDS011;10325;51.468;5.804;2023-03-19T01:21:38;1.20;;;0.87;;
20334;SDS011;10325;51.468;5.804;2023-03-19T01:24:12;0.90;;;0.90;;
20334;SDS011;10325;51.468;5.804;2023-03-19T01:26:43;1.63;;;1.00;;
20334;SDS011;10325;51.468;5.804;2023-03-19T01:29:12;1.87;;;1.10;;
20334;SDS011;10325;51.468;5.804;2023-03-19T01:31:44;1.83;;;1.00;;
20334;SDS011;10325;51.468;5.804;2023-03-19T01:34:15;1.50;;;1.00;;
20334;SDS011;10325;51.468;5.804;2023-03-19T01:36:47;2.23;;;1.20;;
20334;SDS011;10325;51.468;5.804;2023-03-19T01:39:17;1.97;;;1.20;;
20334;SDS011;10325;51.468;5.804;2023-03-19T01:41:52;1.43;;;1.33;;
20334;SDS011;10325;51.468;5.804;2023-03-19T01:44:28;1.93;;;1.00;;
20334;SDS011;10325;51.468;5.804;2023-03-19T01:47:05;1.60;;;1.00;;
20334;SDS011;10325;51.468;5.804;2023-03-19T01:49:40;0.80;;;0.80;;
20334;SDS011;10325;51.468;5.804;2023-03-19T01:52:14;1.30;;;1.03;;
20334;SDS011;10325;51.468;5.804;2023-03-19T01:54:46;1.40;;;1.10;;
20334;SDS011;10325;51.468;5.804;2023-03-19T01:57:17;1.30;;;1.10;;
20334;SDS011;10325;51.468;5.804;2023-03-19T01:59:56;1.20;;;1.10;;
20334;SDS011;10325;51.468;5.804;2023-03-19T02:02:30;2.07;;;1.03;;
20334;SDS011;10325;51.468;5.804;2023-03-19T02:05:15;1.97;;;1.00;;
20334;SDS011;10325;51.468;5.804;2023-03-19T02:08:02;1.50;;;1.10;;
20334;SDS011;10325;51.468;5.804;2023-03-19T02:10:43;1.30;;;1.00;;
20334;SDS011;10325;51.468;5.804;2023-03-19T02:13:17;1.07;;;0.97;;
20334;SDS011;10325;51.468;5.804;2023-03-19T02:15:50;1.47;;;1.10;;
20334;SDS011;10325;51.468;5.804;2023-03-19T02:18:23;1.17;;;1.07;;
20334;SDS011;10325;51.468;5.804;2023-03-19T02:26:43;1.93;;;1.10;;
20334;SDS011;10325;51.468;5.804;2023-03-19T02:29:16;1.20;;;1.07;;
20334;SDS011;10325;51.468;5.804;2023-03-19T02:31:50;1.77;;;1.10;;
20334;SDS011;10325;51.468;5.804;2023-03-19T02:37:00;1.27;;;1.10;;
20334;SDS011;10325;51.468;5.804;2023-03-19T02:40:06;1.40;;;1.10;;
20334;SDS011;10325;51.468;5.804;2023-03-19T02:42:44;2.43;;;1.13;;
20334;SDS011;10325;51.468;5.804;2023-03-19T02:45:27;0.83;;;0.83;;
20334;SDS011;10325;51.468;5.804;2023-03-19T02:47:55;1.80;;;1.37;;
20334;SDS011;10325;51.468;5.804;2023-03-19T02:50:29;1.20;;;0.97;;
20334;SDS011;10325;51.468;5.804;2023-03-19T02:53:01;1.10;;;1.00;;
20334;SDS011;10325;51.468;5.804;2023-03-19T02:55:34;2.17;;;1.10;;
20334;SDS011;10325;51.468;5.804;2023-03-19T02:58:10;2.07;;;1.10;;
20334;SDS011;10325;51.468;5.804;2023-03-19T03:00:40;1.20;;;1.00;;
20334;SDS011;10325;51.468;5.804;2023-03-19T03:03:11;2.03;;;1.10;;
20334;SDS011;10325;51.468;5.804;2023-03-19T03:05:44;1.73;;;1.00;;
20334;SDS011;10325;51.468;5.804;2023-03-19T03:08:14;2.03;;;1.00;;
20334;SDS011;10325;51.468;5.804;2023-03-19T03:10:44;0.90;;;0.90;;
20334;SDS011;10325;51.468;5.804;2023-03-19T03:13:13;1.07;;;0.97;;
20334;SDS011;10325;51.468;5.804;2023-03-19T03:15:45;1.80;;;1.20;;
20334;SDS011;10325;51.468;5.804;2023-03-19T03:18:16;2.23;;;1.23;;
20334;SDS011;10325;51.468;5.804;2023-03-19T03:20:50;2.00;;;1.00;;
20334;SDS011;10325;51.468;5.804;2023-03-19T03:23:22;1.10;;;1.00;;
20334;SDS011;10325;51.468;5.804;2023-03-19T03:25:52;1.40;;;1.10;;
20334;SDS011;10325;51.468;5.804;2023-03-19T03:28:21;1.00;;;0.80;;
20334;SDS011;10325;51.468;5.804;2023-03-19T03:30:56;1.53;;;0.97;;
20334;SDS011;10325;51.468;5.804;2023-03-19T03:33:28;2.07;;;0.80;;
20334;SDS011;10325;51.468;5.804;2023-03-19T03:35:59;0.90;;;0.77;;
20334;SDS011;10325;51.468;5.804;2023-03-19T03:38:31;2.83;;;1.00;;
20334;SDS011;10325;51.468;5.804;2023-03-19T03:41:04;1.50;;;0.93;;
20334;SDS011;10325;51.468;5.804;2023-03-19T03:43:35;2.87;;;1.10;;
20334;SDS011;10325;51.468;5.804;2023-03-19T03:46:04;1.27;;;1.10;;
20334;SDS011;10325;51.468;5.804;2023-03-19T03:48:36;0.83;;;0.83;;
20334;SDS011;10325;51.468;5.804;2023-03-19T03:51:06;1.40;;;0.90;;
20334;SDS011;10325;51.468;5.804;2023-03-19T03:53:37;1.70;;;1.03;;
20334;SDS011;10325;51.468;5.804;2023-03-19T03:56:04;1.40;;;0.83;;
20334;SDS011;10325;51.468;5.804;2023-03-19T03:58:35;1.07;;;0.77;;
20334;SDS011;10325;51.468;5.804;2023-03-19T04:01:03;0.90;;;0.80;;
20334;SDS011;10325;51.468;5.804;2023-03-19T04:03:33;1.30;;;0.77;;
20334;SDS011;10325;51.468;5.804;2023-03-19T04:06:02;1.73;;;1.00;;
20334;SDS011;10325;51.468;5.804;2023-03-19T04:08:32;1.13;;;0.90;;
20334;SDS011;10325;51.468;5.804;2023-03-19T04:11:05;1.70;;;0.73;;
20334;SDS011;10325;51.468;5.804;2023-03-19T04:13:36;1.43;;;0.70;;
20334;SDS011;10325;51.468;5.804;2023-03-19T04:16:07;1.10;;;0.87;;
20334;SDS011;10325;51.468;5.804;2023-03-19T04:18:36;1.00;;;0.90;;
20334;SDS011;10325;51.468;5.804;2023-03-19T04:21:05;1.53;;;0.77;;
20334;SDS011;10325;51.468;5.804;2023-03-19T04:23:37;1.20;;;0.90;;
20334;SDS011;10325;51.468;5.804;2023-03-19T04:26:09;1.53;;;1.10;;
20334;SDS011;10325;51.468;5.804;2023-03-19T04:28:41;1.63;;;1.03;;
20334;SDS011;10325;51.468;5.804;2023-03-19T04:31:11;0.97;;;0.83;;
20334;SDS011;10325;51.468;5.804;2023-03-19T04:33:42;1.97;;;0.83;;
20334;SDS011;10325;51.468;5.804;2023-03-19T04:36:11;1.30;;;1.10;;
20334;SDS011;10325;51.468;5.804;2023-03-19T04:38:41;1.67;;;1.20;;
20334;SDS011;10325;51.468;5.804;2023-03-19T04:41:13;1.00;;;0.97;;
20334;SDS011;10325;51.468;5.804;2023-03-19T04:43:42;1.20;;;1.10;;
20334;SDS011;10325;51.468;5.804;2023-03-19T04:46:13;1.60;;;1.10;;
20334;SDS011;10325;51.468;5.804;2023-03-19T04:48:45;1.33;;;1.00;;
20334;SDS011;10325;51.468;5.804;2023-03-19T04:51:16;1.47;;;1.30;;
20334;SDS011;10325;51.468;5.804;2023-03-19T04:54:05;1.10;;;0.83;;
20334;SDS011;10325;51.468;5.804;2023-03-19T04:56:35;0.97;;;0.77;;
20334;SDS011;10325;51.468;5.804;2023-03-19T04:59:06;1.03;;;0.97;;
20334;SDS011;10325;51.468;5.804;2023-03-19T05:01:51;1.00;;;0.90;;
20334;SDS011;10325;51.468;5.804;2023-03-19T05:04:20;1.10;;;0.90;;
20334;SDS011;10325;51.468;5.804;2023-03-19T05:06:55;0.93;;;0.93;;
20334;SDS011;10325;51.468;5.804;2023-03-19T05:09:24;2.30;;;1.03;;
20334;SDS011;10325;51.468;5.804;2023-03-19T05:11:53;2.03;;;1.13;;
20334;SDS011;10325;51.468;5.804;2023-03-19T05:14:21;1.40;;;1.10;;
20334;SDS011;10325;51.468;5.804;2023-03-19T05:16:52;1.00;;;0.80;;
20334;SDS011;10325;51.468;5.804;2023-03-19T05:19:20;1.00;;;0.90;;
20334;SDS011;10325;51.468;5.804;2023-03-19T05:21:52;1.10;;;0.73;;
20334;SDS011;10325;51.468;5.804;2023-03-19T05:24:23;0.77;;;0.70;;
20334;SDS011;10325;51.468;5.804;2023-03-19T05:26:55;0.87;;;0.87;;
20334;SDS011;10325;51.468;5.804;2023-03-19T05:29:30;1.37;;;0.80;;
20334;SDS011;10325;51.468;5.804;2023-03-19T05:32:02;1.93;;;1.10;;
20334;SDS011;10325;51.468;5.804;2023-03-19T05:34:32;1.57;;;1.07;;
20334;SDS011;10325;51.468;5.804;2023-03-19T05:36:59;1.37;;;0.90;;
20334;SDS011;10325;51.468;5.804;2023-03-19T05:39:29;1.37;;;0.80;;
20334;SDS011;10325;51.468;5.804;2023-03-19T05:42:00;1.03;;;0.73;;
20334;SDS011;10325;51.468;5.804;2023-03-19T05:44:43;1.17;;;1.00;;
20334;SDS011;10325;51.468;5.804;2023-03-19T05:47:14;1.30;;;1.00;;
20334;SDS011;10325;51.468;5.804;2023-03-19T05:49:43;1.33;;;0.90;;
20334;SDS011;10325;51.468;5.804;2023-03-19T05:52:14;0.93;;;0.80;;
20334;SDS011;10325;51.468;5.804;2023-03-19T05:54:44;3.10;;;1.20;;
20334;SDS011;10325;51.468;5.804;2023-03-19T05:57:18;1.33;;;1.20;;
20334;SDS011;10325;51.468;5.804;2023-03-19T05:59:49;1.00;;;0.80;;
20334;SDS011;10325;51.468;5.804;2023-03-19T06:02:19;1.83;;;0.70;;
20334;SDS011;10325;51.468;5.804;2023-03-19T06:04:48;1.10;;;1.00;;
20334;SDS011;10325;51.468;5.804;2023-03-19T06:07:17;1.43;;;0.90;;
20334;SDS011;10325;51.468;5.804;2023-03-19T06:09:46;1.63;;;1.10;;
20334;SDS011;10325;51.468;5.804;2023-03-19T06:12:19;1.30;;;0.80;;
20334;SDS011;10325;51.468;5.804;2023-03-19T06:14:47;2.90;;;1.10;;
20334;SDS011;10325;51.468;5.804;2023-03-19T06:17:17;1.63;;;1.10;;
20334;SDS011;10325;51.468;5.804;2023-03-19T06:19:45;1.30;;;1.00;;
20334;SDS011;10325;51.468;5.804;2023-03-19T06:22:13;1.40;;;1.30;;
20334;SDS011;10325;51.468;5.804;2023-03-19T06:24:43;2.07;;;1.10;;
20334;SDS011;10325;51.468;5.804;2023-03-19T06:27:11;1.73;;;0.80;;
20334;SDS011;10325;51.468;5.804;2023-03-19T06:29:43;1.90;;;1.00;;
20334;SDS011;10325;51.468;5.804;2023-03-19T06:32:13;1.90;;;1.20;;
20334;SDS011;10325;51.468;5.804;2023-03-19T06:34:45;1.73;;;1.40;;
20334;SDS011;10325;51.468;5.804;2023-03-19T06:37:17;1.27;;;1.00;;
20334;SDS011;10325;51.468;5.804;2023-03-19T06:39:46;1.50;;;1.00;;
20334;SDS011;10325;51.468;5.804;2023-03-19T06:42:18;1.33;;;0.93;;
20334;SDS011;10325;51.468;5.804;2023-03-19T06:44:56;1.83;;;1.20;;
20334;SDS011;10325;51.468;5.804;2023-03-19T06:47:26;1.47;;;1.00;;
20334;SDS011;10325;51.468;5.804;2023-03-19T06:49:57;1.73;;;1.20;;
20334;SDS011;10325;51.468;5.804;2023-03-19T06:52:28;1.40;;;1.00;;
20334;SDS011;10325;51.468;5.804;2023-03-19T06:55:01;1.77;;;0.97;;
20334;SDS011;10325;51.468;5.804;2023-03-19T06:57:48;1.37;;;0.90;;
20334;SDS011;10325;51.468;5.804;2023-03-19T07:00:19;2.43;;;1.43;;
20334;SDS011;10325;51.468;5.804;2023-03-19T07:02:50;1.40;;;1.20;;
20334;SDS011;10325;51.468;5.804;2023-03-19T07:05:34;1.63;;;1.00;;
20334;SDS011;10325;51.468;5.804;2023-03-19T07:08:04;1.70;;;1.30;;
20334;SDS011;10325;51.468;5.804;2023-03-19T07:10:40;0.97;;;0.93;;
20334;SDS011;10325;51.468;5.804;2023-03-19T07:13:13;1.47;;;1.37;;
20334;SDS011;10325;51.468;5.804;2023-03-19T07:15:45;1.63;;;1.00;;
20334;SDS011;10325;51.468;5.804;2023-03-19T07:18:14;1.40;;;1.20;;
20334;SDS011;10325;51.468;5.804;2023-03-19T07:20:46;1.83;;;1.20;;
20334;SDS011;10325;51.468;5.804;2023-03-19T07:23:17;2.93;;;0.90;;
20334;SDS011;10325;51.468;5.804;2023-03-19T07:25:49;1.73;;;1.17;;
20334;SDS011;10325;51.468;5.804;2023-03-19T07:28:18;1.10;;;1.00;;
20334;SDS011;10325;51.468;5.804;2023-03-19T07:30:50;1.57;;;1.07;;
20334;SDS011;10325;51.468;5.804;2023-03-19T07:33:20;1.83;;;1.17;;
20334;SDS011;10325;51.468;5.804;2023-03-19T07:35:52;1.80;;;1.20;;
20334;SDS011;10325;51.468;5.804;2023-03-19T07:38:35;2.50;;;1.30;;
20334;SDS011;10325;51.468;5.804;2023-03-19T07:41:06;1.90;;;0.97;;
20334;SDS011;10325;51.468;5.804;2023-03-19T07:43:38;1.87;;;1.10;;
20334;SDS011;10325;51.468;5.804;2023-03-19T07:46:08;1.20;;;1.10;;
20334;SDS011;10325;51.468;5.804;2023-03-19T07:48:38;1.33;;;0.97;;
20334;SDS011;10325;51.468;5.804;2023-03-19T07:51:09;1.37;;;1.03;;
20334;SDS011;10325;51.468;5.804;2023-03-19T07:53:41;1.37;;;1.00;;
20334;SDS011;10325;51.468;5.804;2023-03-19T07:56:09;1.30;;;1.20;;
20334;SDS011;10325;51.468;5.804;2023-03-19T07:58:38;1.27;;;1.10;;
20334;SDS011;10325;51.468;5.804;2023-03-19T08:01:10;1.23;;;1.10;;
20334;SDS011;10325;51.468;5.804;2023-03-19T08:03:41;1.97;;;1.37;;
20334;SDS011;10325;51.468;5.804;2023-03-19T08:06:11;2.37;;;1.30;;
20334;SDS011;10325;51.468;5.804;2023-03-19T08:08:42;1.80;;;1.23;;
20334;SDS011;10325;51.468;5.804;2023-03-19T08:11:14;2.40;;;1.60;;
20334;SDS011;10325;51.468;5.804;2023-03-19T08:13:45;2.97;;;1.80;;
20334;SDS011;10325;51.468;5.804;2023-03-19T08:16:19;2.30;;;1.60;;
20334;SDS011;10325;51.468;5.804;2023-03-19T08:18:48;2.27;;;1.60;;
20334;SDS011;10325;51.468;5.804;2023-03-19T08:21:21;1.90;;;1.60;;
20334;SDS011;10325;51.468;5.804;2023-03-19T08:23:51;2.30;;;1.70;;
20334;SDS011;10325;51.468;5.804;2023-03-19T08:26:21;1.93;;;1.63;;
20334;SDS011;10325;51.468;5.804;2023-03-19T08:28:51;2.50;;;1.60;;
20334;SDS011;10325;51.468;5.804;2023-03-19T08:31:23;3.57;;;1.80;;
20334;SDS011;10325;51.468;5.804;2023-03-19T08:33:54;5.23;;;1.60;;
20334;SDS011;10325;51.468;5.804;2023-03-19T08:36:35;2.30;;;1.77;;
20334;SDS011;10325;51.468;5.804;2023-03-19T08:39:08;2.40;;;1.60;;
20334;SDS011;10325;51.468;5.804;2023-03-19T08:41:38;3.37;;;2.03;;
20334;SDS011;10325;51.468;5.804;2023-03-19T08:44:08;4.53;;;1.90;;
20334;SDS011;10325;51.468;5.804;2023-03-19T08:46:39;4.13;;;1.70;;
20334;SDS011;10325;51.468;5.804;2023-03-19T08:49:13;3.83;;;1.60;;
20334;SDS011;10325;51.468;5.804;2023-03-19T08:51:42;4.33;;;1.90;;
20334;SDS011;10325;51.468;5.804;2023-03-19T08:54:11;3.70;;;1.80;;
20334;SDS011;10325;51.468;5.804;2023-03-19T08:56:43;2.73;;;1.83;;
20334;SDS011;10325;51.468;5.804;2023-03-19T08:59:13;3.53;;;1.90;;
20334;SDS011;10325;51.468;5.804;2023-03-19T09:01:49;2.70;;;1.93;;
20334;SDS011;10325;51.468;5.804;2023-03-19T09:04:19;2.77;;;1.70;;
20334;SDS011;10325;51.468;5.804;2023-03-19T09:07:11;3.50;;;2.07;;
20334;SDS011;10325;51.468;5.804;2023-03-19T09:09:42;3.53;;;2.10;;
20334;SDS011;10325;51.468;5.804;2023-03-19T09:12:17;3.60;;;2.23;;
20334;SDS011;10325;51.468;5.804;2023-03-19T09:14:50;3.53;;;2.00;;
20334;SDS011;10325;51.468;5.804;2023-03-19T09:17:18;5.37;;;1.90;;
20334;SDS011;10325;51.468;5.804;2023-03-19T09:19:48;7.27;;;1.83;;
20334;SDS011;10325;51.468;5.804;2023-03-19T09:22:32;5.53;;;2.20;;
20334;SDS011;10325;51.468;5.804;2023-03-19T09:25:00;9.70;;;2.23;;
20334;SDS011;10325;51.468;5.804;2023-03-19T09:27:35;8.67;;;2.50;;
20334;SDS011;10325;51.468;5.804;2023-03-19T09:30:07;8.33;;;2.20;;
20334;SDS011;10325;51.468;5.804;2023-03-19T09:32:40;3.77;;;2.00;;
20334;SDS011;10325;51.468;5.804;2023-03-19T09:35:09;4.27;;;2.27;;
20334;SDS011;10325;51.468;5.804;2023-03-19T09:37:47;3.87;;;2.00;;
20334;SDS011;10325;51.468;5.804;2023-03-19T09:40:30;6.37;;;2.07;;
20334;SDS011;10325;51.468;5.804;2023-03-19T09:46:16;3.50;;;2.17;;
20334;SDS011;10325;51.468;5.804;2023-03-19T09:51:28;4.37;;;2.07;;
20334;SDS011;10325;51.468;5.804;2023-03-19T09:54:34;4.63;;;1.93;;
20334;SDS011;10325;51.468;5.804;2023-03-19T09:57:11;7.47;;;2.10;;
20334;SDS011;10325;51.468;5.804;2023-03-19T09:59:48;5.33;;;2.17;;
20334;SDS011;10325;51.468;5.804;2023-03-19T10:17:48;3.13;;;1.60;;
20334;SDS011;10325;51.468;5.804;2023-03-19T10:20:55;4.37;;;1.90;;
20334;SDS011;10325;51.468;5.804;2023-03-19T10:23:55;4.00;;;1.80;;
20334;SDS011;10325;51.468;5.804;2023-03-19T10:26:39;5.67;;;1.77;;
20334;SDS011;10325;51.468;5.804;2023-03-19T10:29:16;2.87;;;1.50;;
20334;SDS011;10325;51.468;5.804;2023-03-19T10:31:52;3.63;;;1.50;;
20334;SDS011;10325;51.468;5.804;2023-03-19T10:34:44;4.10;;;1.93;;
20334;SDS011;10325;51.468;5.804;2023-03-19T10:37:49;3.90;;;1.77;;
20334;SDS011;10325;51.468;5.804;2023-03-19T10:40:16;4.27;;;1.87;;
20334;SDS011;10325;51.468;5.804;2023-03-19T10:43:06;5.23;;;1.90;;
20334;SDS011;10325;51.468;5.804;2023-03-19T10:45:50;2.97;;;1.70;;
20334;SDS011;10325;51.468;5.804;2023-03-19T10:48:26;3.27;;;1.67;;
20334;SDS011;10325;51.468;5.804;2023-03-19T10:51:04;4.57;;;1.50;;
20334;SDS011;10325;51.468;5.804;2023-03-19T10:53:36;5.00;;;1.17;;
20334;SDS011;10325;51.468;5.804;2023-03-19T10:59:03;4.47;;;1.60;;
20334;SDS011;10325;51.468;5.804;2023-03-19T11:01:38;4.43;;;1.83;;
20334;SDS011;10325;51.468;5.804;2023-03-19T11:04:21;3.03;;;1.60;;
20334;SDS011;10325;51.468;5.804;2023-03-19T11:06:52;4.13;;;1.90;;
20334;SDS011;10325;51.468;5.804;2023-03-19T11:09:39;5.63;;;1.67;;
20334;SDS011;10325;51.468;5.804;2023-03-19T11:12:31;6.77;;;2.00;;
20334;SDS011;10325;51.468;5.804;2023-03-19T11:15:15;3.30;;;1.60;;
20334;SDS011;10325;51.468;5.804;2023-03-19T11:20:57;5.30;;;1.70;;
20334;SDS011;10325;51.468;5.804;2023-03-19T11:23:37;3.63;;;1.70;;
20334;SDS011;10325;51.468;5.804;2023-03-19T11:26:08;4.83;;;1.67;;
20334;SDS011;10325;51.468;5.804;2023-03-19T11:28:45;4.40;;;1.57;;
20334;SDS011;10325;51.468;5.804;2023-03-19T11:31:45;4.20;;;1.77;;
20334;SDS011;10325;51.468;5.804;2023-03-19T11:35:00;3.13;;;1.70;;
20334;SDS011;10325;51.468;5.804;2023-03-19T11:37:57;3.53;;;1.43;;
20334;SDS011;10325;51.468;5.804;2023-03-19T11:43:29;3.53;;;1.53;;
20334;SDS011;10325;51.468;5.804;2023-03-19T12:00:24;3.50;;;1.63;;
20334;SDS011;10325;51.468;5.804;2023-03-19T12:06:34;2.53;;;1.73;;
20334;SDS011;10325;51.468;5.804;2023-03-19T12:12:13;3.27;;;1.50;;
20334;SDS011;10325;51.468;5.804;2023-03-19T12:17:38;2.53;;;1.50;;
20334;SDS011;10325;51.468;5.804;2023-03-19T12:23:44;3.43;;;1.40;;
20334;SDS011;10325;51.468;5.804;2023-03-19T12:26:42;2.67;;;1.50;;
20334;SDS011;10325;51.468;5.804;2023-03-19T12:35:32;3.97;;;1.20;;
20334;SDS011;10325;51.468;5.804;2023-03-19T12:38:18;3.07;;;1.50;;
20334;SDS011;10325;51.468;5.804;2023-03-19T12:41:17;3.67;;;1.43;;
20334;SDS011;10325;51.468;5.804;2023-03-19T12:47:02;3.83;;;1.50;;
20334;SDS011;10325;51.468;5.804;2023-03-19T12:49:46;4.03;;;1.40;;
20334;SDS011;10325;51.468;5.804;2023-03-19T12:52:28;2.17;;;1.10;;
20334;SDS011;10325;51.468;5.804;2023-03-19T12:58:23;1.77;;;1.10;;
20334;SDS011;10325;51.468;5.804;2023-03-19T13:01:02;3.33;;;1.13;;
20334;SDS011;10325;51.468;5.804;2023-03-19T13:04:04;1.80;;;1.00;;
20334;SDS011;10325;51.468;5.804;2023-03-19T13:07:15;3.77;;;1.37;;
20334;SDS011;10325;51.468;5.804;2023-03-19T13:10:03;2.47;;;1.20;;
20334;SDS011;10325;51.468;5.804;2023-03-19T13:12:40;2.70;;;1.40;;
20334;SDS011;10325;51.468;5.804;2023-03-19T13:15:30;3.43;;;1.27;;
20334;SDS011;10325;51.468;5.804;2023-03-19T13:18:20;2.77;;;1.30;;
20334;SDS011;10325;51.468;5.804;2023-03-19T13:21:22;4.23;;;1.10;;
20334;SDS011;10325;51.468;5.804;2023-03-19T13:27:03;1.60;;;1.10;;
20334;SDS011;10325;51.468;5.804;2023-03-19T13:29:36;3.93;;;1.40;;
20334;SDS011;10325;51.468;5.804;2023-03-19T13:32:39;1.57;;;1.10;;
20334;SDS011;10325;51.468;5.804;2023-03-19T13:35:48;4.73;;;1.17;;
20334;SDS011;10325;51.468;5.804;2023-03-19T13:46:49;2.60;;;1.20;;
20334;SDS011;10325;51.468;5.804;2023-03-19T13:49:26;3.37;;;1.17;;
20334;SDS011;10325;51.468;5.804;2023-03-19T13:55:18;3.37;;;1.50;;
20334;SDS011;10325;51.468;5.804;2023-03-19T14:04:03;3.47;;;1.10;;
20334;SDS011;10325;51.468;5.804;2023-03-19T14:15:22;4.20;;;1.37;;
20334;SDS011;10325;51.468;5.804;2023-03-19T14:18:02;1.63;;;1.30;;
20334;SDS011;10325;51.468;5.804;2023-03-19T14:20:44;2.57;;;1.53;;
20334;SDS011;10325;51.468;5.804;2023-03-19T14:23:27;2.50;;;1.47;;
20334;SDS011;10325;51.468;5.804;2023-03-19T14:26:16;2.73;;;1.63;;
20334;SDS011;10325;51.468;5.804;2023-03-19T14:28:56;2.60;;;1.57;;
20334;SDS011;10325;51.468;5.804;2023-03-19T14:31:54;4.40;;;1.97;;
20334;SDS011;10325;51.468;5.804;2023-03-19T14:34:40;4.03;;;1.73;;
20334;SDS011;10325;51.468;5.804;2023-03-19T14:37:15;3.33;;;1.87;;
20334;SDS011;10325;51.468;5.804;2023-03-19T14:46:03;3.10;;;2.13;;
20334;SDS011;10325;51.468;5.804;2023-03-19T14:57:30;2.90;;;2.20;;
20334;SDS011;10325;51.468;5.804;2023-03-19T15:00:04;2.80;;;2.37;;
20334;SDS011;10325;51.468;5.804;2023-03-19T15:03:12;3.50;;;2.60;;
20334;SDS011;10325;51.468;5.804;2023-03-19T15:05:47;4.17;;;2.50;;
20334;SDS011;10325;51.468;5.804;2023-03-19T15:08:21;3.30;;;2.47;;
20334;SDS011;10325;51.468;5.804;2023-03-19T15:14:11;4.60;;;2.53;;
20334;SDS011;10325;51.468;5.804;2023-03-19T15:17:12;3.97;;;2.70;;
20334;SDS011;10325;51.468;5.804;2023-03-19T15:19:44;3.73;;;3.00;;
20334;SDS011;10325;51.468;5.804;2023-03-19T15:25:15;3.40;;;3.10;;
20334;SDS011;10325;51.468;5.804;2023-03-19T15:30:37;3.40;;;3.10;;
20334;SDS011;10325;51.468;5.804;2023-03-19T15:33:23;4.43;;;2.80;;
20334;SDS011;10325;51.468;5.804;2023-03-19T15:36:12;6.53;;;3.53;;
20334;SDS011;10325;51.468;5.804;2023-03-19T15:38:51;4.47;;;3.10;;
20334;SDS011;10325;51.468;5.804;2023-03-19T15:41:28;9.63;;;4.00;;
20334;SDS011;10325;51.468;5.804;2023-03-19T15:44:19;6.67;;;4.37;;
20334;SDS011;10325;51.468;5.804;2023-03-19T15:47:15;8.43;;;3.57;;
20334;SDS011;10325;51.468;5.804;2023-03-19T15:50:14;8.63;;;3.57;;
20334;SDS011;10325;51.468;5.804;2023-03-19T15:52:46;5.17;;;3.23;;
20334;SDS011;10325;51.468;5.804;2023-03-19T15:55:32;5.70;;;3.57;;
20334;SDS011;10325;51.468;5.804;2023-03-19T15:58:05;8.00;;;3.43;;
20334;SDS011;10325;51.468;5.804;2023-03-19T16:00:37;7.87;;;3.87;;
20334;SDS011;10325;51.468;5.804;2023-03-19T16:03:28;8.63;;;3.57;;
20334;SDS011;10325;51.468;5.804;2023-03-19T16:06:06;6.73;;;3.83;;
20334;SDS011;10325;51.468;5.804;2023-03-19T16:11:56;6.67;;;3.73;;
20334;SDS011;10325;51.468;5.804;2023-03-19T16:17:00;4.83;;;3.57;;
20334;SDS011;10325;51.468;5.804;2023-03-19T16:19:32;9.30;;;3.87;;
20334;SDS011;10325;51.468;5.804;2023-03-19T16:22:18;9.60;;;3.70;;
20334;SDS011;10325;51.468;5.804;2023-03-19T16:24:49;8.17;;;4.57;;
20334;SDS011;10325;51.468;5.804;2023-03-19T16:27:21;6.73;;;4.03;;
20334;SDS011;10325;51.468;5.804;2023-03-19T16:30:21;12.10;;;4.20;;
20334;SDS011;10325;51.468;5.804;2023-03-19T16:32:58;5.97;;;4.03;;
20334;SDS011;10325;51.468;5.804;2023-03-19T16:35:46;5.90;;;4.30;;
20334;SDS011;10325;51.468;5.804;2023-03-19T16:38:23;10.20;;;4.63;;
20334;SDS011;10325;51.468;5.804;2023-03-19T16:41:31;5.10;;;4.60;;
20334;SDS011;10325;51.468;5.804;2023-03-19T16:44:16;7.40;;;4.57;;
20334;SDS011;10325;51.468;5.804;2023-03-19T16:46:48;7.07;;;4.97;;
20334;SDS011;10325;51.468;5.804;2023-03-19T16:49:19;7.13;;;5.13;;
20334;SDS011;10325;51.468;5.804;2023-03-19T16:51:48;8.40;;;5.10;;
20334;SDS011;10325;51.468;5.804;2023-03-19T16:54:18;7.33;;;5.47;;
20334;SDS011;10325;51.468;5.804;2023-03-19T16:56:54;8.47;;;5.30;;
20334;SDS011;10325;51.468;5.804;2023-03-19T16:59:25;6.37;;;5.40;;
20334;SDS011;10325;51.468;5.804;2023-03-19T17:01:59;8.03;;;5.80;;
20334;SDS011;10325;51.468;5.804;2023-03-19T17:04:27;6.87;;;5.50;;
20334;SDS011;10325;51.468;5.804;2023-03-19T17:07:02;6.63;;;5.97;;
20334;SDS011;10325;51.468;5.804;2023-03-19T17:09:33;7.70;;;6.07;;
20334;SDS011;10325;51.468;5.804;2023-03-19T17:12:02;8.77;;;5.80;;
20334;SDS011;10325;51.468;5.804;2023-03-19T17:14:55;8.97;;;6.03;;
20334;SDS011;10325;51.468;5.804;2023-03-19T17:17:27;5.70;;;5.20;;
20334;SDS011;10325;51.468;5.804;2023-03-19T17:19:58;7.27;;;5.30;;
20334;SDS011;10325;51.468;5.804;2023-03-19T17:22:31;7.37;;;6.07;;
20334;SDS011;10325;51.468;5.804;2023-03-19T17:25:10;9.23;;;5.43;;
20334;SDS011;10325;51.468;5.804;2023-03-19T17:27:39;11.37;;;5.67;;
20334;SDS011;10325;51.468;5.804;2023-03-19T17:30:11;9.63;;;5.87;;
20334;SDS011;10325;51.468;5.804;2023-03-19T17:32:40;6.57;;;5.43;;
20334;SDS011;10325;51.468;5.804;2023-03-19T17:35:26;9.23;;;5.33;;
20334;SDS011;10325;51.468;5.804;2023-03-19T17:37:57;7.60;;;5.03;;
20334;SDS011;10325;51.468;5.804;2023-03-19T17:40:27;7.57;;;5.20;;
20334;SDS011;10325;51.468;5.804;2023-03-19T17:42:57;8.47;;;4.80;;
20334;SDS011;10325;51.468;5.804;2023-03-19T17:45:31;5.97;;;4.90;;
20334;SDS011;10325;51.468;5.804;2023-03-19T17:48:08;6.60;;;4.40;;
20334;SDS011;10325;51.468;5.804;2023-03-19T17:50:51;7.60;;;4.60;;
20334;SDS011;10325;51.468;5.804;2023-03-19T17:53:26;6.37;;;4.27;;
20334;SDS011;10325;51.468;5.804;2023-03-19T17:55:58;8.40;;;4.57;;